Loma Alta, Texas
Current Conditions -  °F | °C
As of 2:53 AM on Thursday 23 Oct 2014 (Local Time) from KDRT Reporting Station
Haze Haze  
Wind Chill: 65°   Ceiling: 9000
Heat Index: 65°   Visibility: 6mi
Dew Point: 64°   Wind: 0mph
Humidity: 97%   Direction: NA
Pressure: 30.09"   Gusts: NA
Location:  29.92°N, 100.87°W
Report Text: KDRT 230753Z AUTO 00000KT 6SM BR OVC090 18/18 A3009 RMK AO2 SLP179 T01830178
Loading
Personal Weather Stations






























Interactive Weather Map
Tropical Storm Tracking
New forecast layout! Learn more

10-Day Weather Forecast

Advertisements
Track Severe Weather on mobile